Time;durP1;ratioP1;P1;durP2;ratioP2;P2;SDS_P1;SDS_P2;PMS_P1;PMS_P2;Temp;Humidity;BMP_temperature;BMP_pressure;BME280_temperature;BME280_humidity;BME280_pressure;Samples;Min_cycle;Max_cycle;Signal;HPM_P1;HPM_P2
2023/01/07 00:01:29;;;;;;;1.90;1.40;;;;;;;8.20;84.41;96045.28;4976231;28;20189;-86
2023/01/07 00:03:57;;;;;;;2.50;1.50;;;;;;;8.16;84.83;96051.63;4965197;28;20246;-87
2023/01/07 00:06:25;;;;;;;1.27;1.13;;;;;;;8.12;85.03;96045.03;4975587;28;20207;-87
2023/01/07 00:08:52;;;;;;;2.97;1.30;;;;;;;8.11;85.18;96046.00;4970158;28;20219;-86
2023/01/07 00:11:20;;;;;;;1.90;1.60;;;;;;;8.17;85.04;96042.13;4965600;28;20193;-86
2023/01/07 00:13:50;;;;;;;2.13;1.17;;;;;;;8.18;85.27;96039.41;4960621;28;20211;-86
2023/01/07 00:16:17;;;;;;;1.73;1.60;;;;;;;8.15;85.02;96039.66;4946863;28;20259;-87
2023/01/07 00:18:43;;;;;;;1.37;1.27;;;;;;;8.07;85.33;96036.03;4977510;28;20212;-86
2023/01/07 00:21:12;;;;;;;1.23;1.13;;;;;;;8.09;85.00;96039.31;4960202;28;20250;-87
2023/01/07 00:23:39;;;;;;;1.20;1.10;;;;;;;8.14;85.15;96032.03;4976118;28;20189;-87
2023/01/07 00:26:10;;;;;;;1.80;1.43;;;;;;;8.11;85.25;96032.25;4964894;28;20243;-86
2023/01/07 00:28:38;;;;;;;1.47;1.30;;;;;;;8.06;85.30;96024.84;4975293;28;20677;-86
2023/01/07 00:31:28;;;;;;;1.43;1.07;;;;;;;8.08;84.36;96020.38;4957074;28;20585;-86
2023/01/07 00:36:20;;;;;;;1.20;1.10;;;;;;;8.04;83.88;96016.41;4974280;28;20212;-85
2023/01/07 00:38:46;;;;;;;1.33;1.10;;;;;;;8.06;83.79;96021.44;4968561;28;20216;-87
2023/01/07 00:41:12;;;;;;;1.00;0.73;;;;;;;7.99;83.61;96010.75;4974883;28;20192;-86
2023/01/07 00:43:37;;;;;;;0.97;0.83;;;;;;;8.06;83.56;96014.50;4965476;28;20180;-86
2023/01/07 00:46:02;;;;;;;1.00;0.80;;;;;;;8.08;83.62;96010.03;4954989;28;20252;-86
2023/01/07 00:48:28;;;;;;;1.17;0.90;;;;;;;8.06;83.47;96006.75;4958119;28;20232;-87
2023/01/07 00:50:53;;;;;;;1.07;0.97;;;;;;;8.07;83.66;96004.97;4958425;28;20255;-86
2023/01/07 00:53:19;;;;;;;1.03;0.93;;;;;;;8.07;82.95;96005.81;4955277;28;20197;-87
2023/01/07 00:55:44;;;;;;;0.90;0.90;;;;;;;8.06;83.55;96004.16;4974084;28;20707;-85
2023/01/07 00:58:13;;;;;;;1.30;1.20;;;;;;;8.06;83.75;95998.16;4974259;28;20212;-86
2023/01/07 01:00:39;;;;;;;1.27;1.17;;;;;;;8.05;84.24;95999.13;4955116;29;20193;-86
2023/01/07 01:03:04;;;;;;;1.37;1.10;;;;;;;8.05;84.04;96005.09;4974094;28;20202;-86
2023/01/07 01:05:29;;;;;;;3.23;1.30;;;;;;;8.01;84.07;96000.28;4974082;28;20243;-86
2023/01/07 01:07:55;;;;;;;3.67;1.40;;;;;;;8.05;84.39;96001.69;4967084;28;20619;-86
2023/01/07 01:10:20;;;;;;;1.50;1.30;;;;;;;8.05;84.48;95992.19;4958198;28;20227;-87
2023/01/07 01:12:48;;;;;;;1.37;1.20;;;;;;;8.06;84.31;95990.41;4990406;28;20206;-87
2023/01/07 01:15:14;;;;;;;2.63;1.20;;;;;;;8.05;84.54;95987.00;4962509;28;20208;-86
2023/01/07 01:17:39;;;;;;;1.30;1.20;;;;;;;7.98;85.06;95988.41;4974771;28;20700;-86
2023/01/07 01:20:06;;;;;;;2.73;1.40;;;;;;;8.00;85.17;95988.28;4966616;28;20230;-86
2023/01/07 01:22:31;;;;;;;1.80;1.37;;;;;;;8.00;85.09;95983.94;4966134;28;20188;-86
2023/01/07 01:24:57;;;;;;;2.00;1.20;;;;;;;7.97;84.86;95984.19;4973640;28;20239;-86
2023/01/07 01:27:22;;;;;;;1.47;1.37;;;;;;;7.94;84.53;95979.25;4972262;28;20201;-85
2023/01/07 01:29:47;;;;;;;2.00;1.40;;;;;;;7.91;84.45;95985.50;4955724;28;20200;-86
2023/01/07 01:32:13;;;;;;;3.07;2.00;;;;;;;7.95;84.05;95978.31;4975663;28;20200;-87
2023/01/07 01:34:38;;;;;;;6.93;2.60;;;;;;;8.00;84.02;95981.34;4972443;28;20248;-87
2023/01/07 01:37:03;;;;;;;4.70;2.80;;;;;;;7.99;83.95;95981.47;4975068;28;20197;-87
2023/01/07 01:39:29;;;;;;;10.67;5.10;;;;;;;7.92;83.95;95979.38;4973952;28;20201;-86
2023/01/07 01:41:54;;;;;;;6.37;3.67;;;;;;;7.90;83.94;95977.84;4957756;28;20188;-86
2023/01/07 01:44:52;;;;;;;3.17;2.10;;;;;;;8.01;83.65;95977.81;4954233;28;20216;-86
2023/01/07 01:47:30;;;;;;;3.50;1.67;;;;;;;8.03;83.65;95975.13;4920661;29;20201;-86
2023/01/07 01:50:02;;;;;;;1.40;1.17;;;;;;;7.98;84.10;95970.31;4951333;29;20188;-86
2023/01/07 01:52:40;;;;;;;1.60;1.47;;;;;;;7.96;82.82;95974.81;4920604;29;20201;-87
2023/01/07 01:55:08;;;;;;;1.80;1.10;;;;;;;8.00;82.66;95971.00;4946710;29;20209;-85
2023/01/07 01:57:35;;;;;;;1.43;1.10;;;;;;;8.02;82.90;95969.13;4936127;29;20221;-86
2023/01/07 02:00:02;;;;;;;1.10;1.07;;;;;;;7.93;83.33;95967.25;4917302;29;20772;-86
2023/01/07 02:02:33;;;;;;;1.23;1.13;;;;;;;7.92;82.89;95969.03;4952555;29;20189;-86
2023/01/07 02:04:58;;;;;;;1.13;1.00;;;;;;;7.94;82.71;95963.72;4935994;29;20189;-86
2023/01/07 02:07:24;;;;;;;1.30;1.10;;;;;;;7.97;82.45;95962.69;4921013;29;20213;-86
2023/01/07 02:10:14;;;;;;;1.20;1.10;;;;;;;8.06;81.36;95957.59;4921124;29;20264;-86
2023/01/07 02:13:16;;;;;;;1.10;1.00;;;;;;;8.02;81.15;95961.38;4927744;29;20208;-87
2023/01/07 02:15:57;;;;;;;1.27;1.07;;;;;;;8.06;81.44;95957.59;4920002;29;20392;-85
2023/01/07 02:18:49;;;;;;;1.37;1.23;;;;;;;7.99;82.36;95959.03;4948353;29;20229;-87
2023/01/07 02:21:41;;;;;;;1.40;1.30;;;;;;;7.99;82.95;95953.84;4936823;29;20197;-84
2023/01/07 02:24:27;;;;;;;1.57;1.20;;;;;;;8.01;82.78;95954.56;4961679;28;20200;-85
2023/01/07 02:27:14;;;;;;;2.97;1.30;;;;;;;7.92;83.24;95944.94;4964885;28;20248;-85
2023/01/07 02:30:12;;;;;;;1.33;1.23;;;;;;;7.92;83.30;95944.94;4973059;28;20294;-86
2023/01/07 02:32:58;;;;;;;1.53;1.43;;;;;;;8.02;83.30;95939.84;4880241;29;20206;-86
2023/01/07 02:36:15;;;;;;;1.53;1.33;;;;;;;7.95;83.62;95930.00;4879761;29;20306;-86
2023/01/07 02:38:57;;;;;;;3.77;2.07;;;;;;;7.82;85.36;95931.09;4864290;29;20226;-86
2023/01/07 02:41:32;;;;;;;2.60;1.90;;;;;;;7.81;84.16;95925.09;4875843;29;20221;-85
2023/01/07 02:44:01;;;;;;;2.00;1.80;;;;;;;7.81;84.48;95913.94;4890946;29;20253;-85
2023/01/07 02:46:33;;;;;;;1.70;1.60;;;;;;;7.84;85.04;95916.28;4877181;29;20648;-85
2023/01/07 02:49:05;;;;;;;2.33;1.80;;;;;;;7.95;84.17;95916.22;4874944;29;20223;-86
2023/01/07 02:51:35;;;;;;;4.97;1.70;;;;;;;7.98;83.93;95902.25;4883529;29;20197;-86
2023/01/07 02:54:00;;;;;;;1.70;1.60;;;;;;;7.92;83.98;95890.63;4899999;29;20191;-86
2023/01/07 02:56:51;;;;;;;2.60;2.00;;;;;;;7.97;83.37;95893.69;4868434;29;20306;-86
2023/01/07 02:59:37;;;;;;;1.83;1.50;;;;;;;7.88;83.65;95890.06;4883783;29;20217;-87
2023/01/07 03:02:21;;;;;;;1.70;1.60;;;;;;;7.82;84.07;95902.66;4883607;29;20226;-87
2023/01/07 03:05:14;;;;;;;1.67;1.57;;;;;;;7.84;83.95;95898.19;4898500;29;20277;-86
2023/01/07 03:08:03;;;;;;;2.13;1.70;;;;;;;7.92;83.76;95888.88;4919043;28;20315;-86
2023/01/07 03:10:51;;;;;;;1.70;1.60;;;;;;;7.86;83.79;95879.03;4960113;28;20292;-85
2023/01/07 03:13:20;;;;;;;1.90;1.70;;;;;;;7.77;84.57;95884.09;4966805;28;20300;-87
2023/01/07 03:16:06;;;;;;;1.73;1.63;;;;;;;7.84;84.04;95885.25;4975652;28;20215;-85
2023/01/07 03:18:38;;;;;;;1.60;1.50;;;;;;;7.89;82.19;95880.53;4956001;28;20216;-87
2023/01/07 03:21:06;;;;;;;1.70;1.60;;;;;;;7.84;82.13;95878.31;4977561;28;20191;-87
2023/01/07 03:23:32;;;;;;;2.77;1.60;;;;;;;7.92;82.01;95875.13;4961406;28;20196;-87
2023/01/07 03:26:00;;;;;;;2.03;1.50;;;;;;;7.92;81.82;95873.34;4976154;28;20196;-87
2023/01/07 03:28:27;;;;;;;1.73;1.40;;;;;;;7.88;81.70;95871.97;4976299;28;20676;-86
2023/01/07 03:30:55;;;;;;;1.50;1.40;;;;;;;7.84;81.59;95865.38;4976520;28;20188;-86
2023/01/07 03:33:24;;;;;;;1.30;1.20;;;;;;;7.86;81.80;95865.25;4960257;28;20275;-87
2023/01/07 03:35:51;;;;;;;2.43;1.50;;;;;;;7.81;82.27;95864.81;4959588;28;20717;-87
2023/01/07 03:38:18;;;;;;;1.20;1.10;;;;;;;7.86;82.23;95863.53;4958861;28;20249;-86
2023/01/07 03:40:43;;;;;;;2.13;1.37;;;;;;;7.79;82.21;95862.38;4960227;28;20200;-86
2023/01/07 03:43:13;;;;;;;1.20;1.10;;;;;;;7.80;82.08;95858.00;4963690;28;20286;-86
2023/01/07 03:45:38;;;;;;;1.40;1.30;;;;;;;7.78;82.26;95859.91;4964292;28;20775;-87
2023/01/07 03:48:03;;;;;;;1.47;1.37;;;;;;;7.72;83.01;95853.44;4959791;28;20215;-87
2023/01/07 03:50:29;;;;;;;2.50;1.40;;;;;;;7.67;83.17;95850.41;4977039;28;20184;-86
2023/01/07 03:52:54;;;;;;;1.37;1.20;;;;;;;7.74;82.60;95850.75;4972346;28;20759;-87
2023/01/07 03:55:19;;;;;;;1.23;1.13;;;;;;;7.73;82.54;95842.16;4958637;28;20216;-85
2023/01/07 03:57:45;;;;;;;1.37;1.07;;;;;;;7.70;83.14;95844.19;4964947;28;20220;-87
2023/01/07 04:00:11;;;;;;;1.50;1.10;;;;;;;7.70;82.11;95832.06;4976358;28;20196;-87
2023/01/07 04:02:37;;;;;;;1.00;0.90;;;;;;;7.78;81.87;95836.63;4976175;28;20194;-87
2023/01/07 04:05:03;;;;;;;2.57;1.00;;;;;;;7.74;81.99;95832.66;4959601;28;20263;-86
2023/01/07 04:07:28;;;;;;;1.73;1.07;;;;;;;7.74;82.01;95833.47;4959882;28;20831;-86
2023/01/07 04:09:53;;;;;;;1.43;1.10;;;;;;;7.78;81.25;95834.06;4959514;28;20196;-87
2023/01/07 04:12:19;;;;;;;1.30;1.00;;;;;;;7.79;81.06;95835.69;4977721;28;20907;-85
2023/01/07 04:14:44;;;;;;;1.13;1.03;;;;;;;7.83;81.63;95827.53;4965066;28;20288;-86
2023/01/07 04:17:09;;;;;;;1.83;1.20;;;;;;;7.77;81.80;95833.19;4958077;28;20296;-86
2023/01/07 04:19:37;;;;;;;1.53;1.20;;;;;;;7.73;81.96;95831.00;4975448;28;20279;-87
2023/01/07 04:22:03;;;;;;;0.97;0.87;;;;;;;7.70;81.43;95831.25;4960113;28;20196;-87
2023/01/07 04:24:28;;;;;;;1.23;1.13;;;;;;;7.62;81.85;95830.09;4975633;28;20188;-87
2023/01/07 04:26:54;;;;;;;1.53;1.27;;;;;;;7.57;82.00;95815.91;4967967;28;20196;-88
2023/01/07 04:29:19;;;;;;;1.47;1.10;;;;;;;7.61;81.51;95817.31;4958785;28;20239;-87
2023/01/07 04:31:44;;;;;;;0.90;0.90;;;;;;;7.50;81.17;95814.75;4957111;28;20193;-86
2023/01/07 04:34:10;;;;;;;1.37;1.27;;;;;;;7.59;80.62;95811.41;4974871;28;20212;-87
2023/01/07 04:36:35;;;;;;;2.17;1.90;;;;;;;7.68;79.46;95802.94;4966050;28;20218;-86
2023/01/07 04:39:00;;;;;;;0.97;0.97;;;;;;;7.69;79.83;95804.59;4958947;28;20271;-85
2023/01/07 04:41:26;;;;;;;1.73;1.10;;;;;;;7.67;80.32;95811.63;4975297;28;20192;-85
2023/01/07 04:43:51;;;;;;;0.90;0.90;;;;;;;7.70;80.24;95800.25;4973937;28;20196;-87
2023/01/07 04:46:16;;;;;;;1.17;1.07;;;;;;;7.63;80.20;95795.56;4968142;28;20195;-87
2023/01/07 04:48:41;;;;;;;3.07;1.27;;;;;;;7.57;79.80;95790.06;4964806;28;20212;-86
2023/01/07 04:51:07;;;;;;;1.00;1.00;;;;;;;7.63;79.20;95790.38;4976798;28;20224;-85
2023/01/07 04:53:32;;;;;;;1.10;1.00;;;;;;;7.45;79.20;95781.53;4966044;28;20192;-85
2023/01/07 04:55:57;;;;;;;1.17;1.07;;;;;;;7.46;79.44;95790.09;4959923;28;20212;-85
2023/01/07 04:58:23;;;;;;;1.30;1.20;;;;;;;7.53;79.32;95794.66;4961513;28;20213;-85
2023/01/07 05:00:48;;;;;;;1.20;1.10;;;;;;;7.57;79.69;95785.69;4960797;28;20192;-85
2023/01/07 05:03:13;;;;;;;1.77;1.30;;;;;;;7.57;78.85;95785.69;4975733;28;20185;-85
2023/01/07 05:05:39;;;;;;;1.63;1.10;;;;;;;7.52;79.61;95782.69;4974370;28;20189;-85
2023/01/07 05:08:04;;;;;;;1.40;1.30;;;;;;;7.54;79.34;95778.22;4957770;28;20304;-85
2023/01/07 05:10:30;;;;;;;1.23;1.13;;;;;;;7.53;79.54;95776.56;4958855;28;20287;-85
2023/01/07 05:12:55;;;;;;;1.23;1.10;;;;;;;7.55;79.24;95779.03;4958725;28;20279;-86
2023/01/07 05:15:20;;;;;;;1.30;1.20;;;;;;;7.54;79.30;95778.22;4960469;28;20221;-86
2023/01/07 05:17:45;;;;;;;1.30;1.20;;;;;;;7.50;79.89;95774.22;4959411;28;20609;-85
2023/01/07 05:20:12;;;;;;;1.40;1.30;;;;;;;7.43;79.90;95777.44;4962460;28;20208;-85
2023/01/07 05:22:37;;;;;;;1.30;1.20;;;;;;;7.39;79.63;95771.66;4985478;28;20529;-85
2023/01/07 05:25:03;;;;;;;1.77;1.60;;;;;;;7.39;78.95;95769.09;4984078;28;20215;-85
2023/01/07 05:27:28;;;;;;;1.73;1.50;;;;;;;7.44;77.75;95769.56;4967994;28;20216;-85
2023/01/07 05:29:53;;;;;;;1.33;1.23;;;;;;;7.49;77.18;95756.25;4977282;28;20192;-85
2023/01/07 05:32:19;;;;;;;1.40;1.30;;;;;;;7.44;78.13;95764.38;4961524;28;20259;-84
2023/01/07 05:34:44;;;;;;;1.40;1.30;;;;;;;7.51;77.54;95767.28;4977299;28;20204;-85
2023/01/07 05:37:09;;;;;;;1.60;1.50;;;;;;;7.43;77.81;95762.75;4959058;28;20200;-85
2023/01/07 05:39:34;;;;;;;1.40;1.30;;;;;;;7.46;78.04;95757.31;4976513;28;20211;-86
2023/01/07 05:42:00;;;;;;;1.90;1.80;;;;;;;7.41;78.22;95754.28;4974915;28;20216;-86
2023/01/07 05:44:25;;;;;;;2.27;2.10;;;;;;;7.39;78.05;95759.56;4956045;28;20328;-85
2023/01/07 05:46:50;;;;;;;2.43;2.00;;;;;;;7.43;77.79;95747.25;4964840;28;20184;-85
2023/01/07 05:49:16;;;;;;;1.53;1.43;;;;;;;7.49;77.79;95757.06;4974965;28;20290;-84
2023/01/07 05:51:41;;;;;;;1.93;1.83;;;;;;;7.37;77.83;95745.16;4974227;28;20188;-85
2023/01/07 05:54:07;;;;;;;1.43;1.33;;;;;;;7.43;77.45;95747.25;4974551;28;20279;-85
2023/01/07 05:56:32;;;;;;;1.70;1.40;;;;;;;7.49;77.21;95741.56;4971872;28;20251;-86
2023/01/07 05:58:58;;;;;;;1.60;1.50;;;;;;;7.48;76.85;95739.94;4975110;28;20216;-86
2023/01/07 06:01:23;;;;;;;1.33;1.23;;;;;;;7.50;77.37;95738.03;4969257;28;20343;-86
2023/01/07 06:03:48;;;;;;;1.60;1.50;;;;;;;7.50;77.01;95742.38;4966601;28;20564;-86
2023/01/07 06:06:14;;;;;;;1.40;1.30;;;;;;;7.44;77.56;95727.41;4966971;28;20567;-86
2023/01/07 06:08:39;;;;;;;1.53;1.40;;;;;;;7.33;78.19;95731.66;4965851;28;20205;-86
2023/01/07 06:11:06;;;;;;;2.23;1.57;;;;;;;7.36;78.25;95725.44;4959595;28;20192;-86
2023/01/07 06:13:32;;;;;;;1.90;1.80;;;;;;;7.27;78.32;95726.97;4955736;29;20196;-85
2023/01/07 06:16:02;;;;;;;1.60;1.50;;;;;;;7.39;77.33;95725.97;4974178;28;20196;-84
2023/01/07 06:18:27;;;;;;;1.50;1.40;;;;;;;7.44;77.26;95723.03;4965375;28;20234;-86
2023/01/07 06:20:53;;;;;;;1.93;1.73;;;;;;;7.38;77.26;95724.34;4974998;28;20193;-85
2023/01/07 06:23:18;;;;;;;1.83;1.73;;;;;;;7.30;77.50;95720.75;4964874;28;20664;-86
2023/01/07 06:25:43;;;;;;;2.10;1.90;;;;;;;7.36;77.07;95720.25;4956092;28;20201;-86
2023/01/07 06:28:09;;;;;;;2.70;2.50;;;;;;;7.29;77.30;95712.19;4964660;28;20208;-86
2023/01/07 06:30:34;;;;;;;2.50;2.30;;;;;;;7.29;77.69;95713.94;4973668;28;20649;-85
2023/01/07 06:32:59;;;;;;;2.33;2.13;;;;;;;7.35;77.39;95716.84;4955411;29;20196;-87
2023/01/07 06:35:25;;;;;;;1.90;1.77;;;;;;;7.40;76.97;95708.72;4973513;28;20200;-85
2023/01/07 06:37:50;;;;;;;1.77;1.67;;;;;;;7.37;77.11;95720.13;4964728;28;20216;-86
2023/01/07 06:40:15;;;;;;;2.60;1.60;;;;;;;7.33;77.52;95715.31;4973642;28;20992;-84
2023/01/07 06:42:41;;;;;;;1.70;1.60;;;;;;;7.34;77.48;95709.25;4956069;28;20261;-86
2023/01/07 06:45:06;;;;;;;1.67;1.50;;;;;;;7.34;77.91;95711.81;4957142;28;20192;-84
2023/01/07 06:47:32;;;;;;;1.87;1.63;;;;;;;7.37;77.71;95701.22;4963049;28;20355;-85
2023/01/07 06:49:57;;;;;;;1.53;1.43;;;;;;;7.35;77.84;95695.38;4967530;28;20195;-86
2023/01/07 06:52:22;;;;;;;1.57;1.47;;;;;;;7.37;77.84;95693.47;4957399;28;20208;-84
2023/01/07 06:54:47;;;;;;;1.20;1.10;;;;;;;7.41;77.27;95688.88;4955796;28;20213;-85
2023/01/07 06:57:13;;;;;;;1.57;1.40;;;;;;;7.32;77.41;95693.00;4975544;28;20204;-85
2023/01/07 06:59:38;;;;;;;1.63;1.53;;;;;;;7.30;78.00;95689.75;4974372;28;20279;-85
2023/01/07 07:02:03;;;;;;;1.90;1.80;;;;;;;7.30;78.67;95692.31;4957966;28;20200;-84
2023/01/07 07:04:29;;;;;;;2.00;1.80;;;;;;;7.10;79.07;95693.94;4967031;28;20306;-85
2023/01/07 07:06:54;;;;;;;2.13;1.93;;;;;;;7.09;79.10;95687.94;4957259;28;20628;-88
2023/01/07 07:09:19;;;;;;;2.27;2.07;;;;;;;7.09;78.42;95692.31;4973268;28;20213;-87
2023/01/07 07:11:45;;;;;;;2.60;2.30;;;;;;;7.10;78.07;95689.59;4957017;28;20192;-87
2023/01/07 07:14:10;;;;;;;1.80;1.70;;;;;;;6.99;78.46;95689.63;4973362;28;20198;-87
2023/01/07 07:16:35;;;;;;;1.60;1.50;;;;;;;7.14;77.96;95695.31;4972991;28;20205;-85
2023/01/07 07:19:01;;;;;;;1.60;1.50;;;;;;;6.94;78.72;95702.06;4955318;28;20213;-84
2023/01/07 07:21:26;;;;;;;3.07;1.50;;;;;;;7.05;78.55;95696.88;4972285;28;20200;-86
2023/01/07 07:23:51;;;;;;;2.33;1.87;;;;;;;7.19;77.71;95684.63;4971477;28;20192;-86
2023/01/07 07:26:17;;;;;;;1.40;1.30;;;;;;;7.18;77.52;95681.22;4966308;28;20181;-84
2023/01/07 07:28:43;;;;;;;1.47;1.13;;;;;;;6.74;79.59;95685.59;4959296;28;20291;-85
2023/01/07 07:31:09;;;;;;;1.30;1.00;;;;;;;6.84;79.89;95688.25;4963858;28;20188;-86
2023/01/07 07:33:34;;;;;;;1.47;1.00;;;;;;;7.02;78.62;95686.78;4958895;28;20188;-86
2023/01/07 07:36:00;;;;;;;0.90;0.90;;;;;;;6.83;78.80;95681.47;4958460;28;20208;-85
2023/01/07 07:38:25;;;;;;;1.00;1.00;;;;;;;6.74;79.71;95674.44;4959149;28;20571;-86
2023/01/07 07:40:50;;;;;;;1.13;1.03;;;;;;;6.89;79.40;95680.97;4958356;28;20223;-87
2023/01/07 07:43:15;;;;;;;1.10;1.00;;;;;;;6.90;78.92;95674.88;4974767;28;20247;-84
2023/01/07 07:45:41;;;;;;;0.87;0.87;;;;;;;6.93;79.00;95671.22;4974875;28;20184;-86
2023/01/07 07:48:08;;;;;;;1.70;0.70;;;;;;;6.79;79.46;95669.72;4957984;28;20268;-86
2023/01/07 07:50:34;;;;;;;0.83;0.83;;;;;;;7.04;78.80;95666.00;4959387;28;20676;-84
2023/01/07 07:52:59;;;;;;;0.97;0.97;;;;;;;6.91;78.84;95666.19;4958634;28;20211;-85
2023/01/07 07:55:24;;;;;;;1.07;0.97;;;;;;;7.08;78.60;95657.09;4957883;28;20696;-86
2023/01/07 07:57:53;;;;;;;1.83;1.53;;;;;;;7.13;78.35;95656.72;4956362;28;20208;-85
2023/01/07 08:00:18;;;;;;;1.20;1.10;;;;;;;6.99;78.95;95656.06;4974673;28;20188;-85
2023/01/07 08:02:43;;;;;;;1.70;1.27;;;;;;;7.07;78.58;95664.03;4973170;28;20192;-84
2023/01/07 08:05:11;;;;;;;1.60;1.43;;;;;;;6.95;78.46;95656.41;4970881;28;20320;-86
2023/01/07 08:07:37;;;;;;;3.03;2.73;;;;;;;6.86;78.78;95657.97;4963871;28;20716;-85
2023/01/07 08:10:02;;;;;;;1.40;1.30;;;;;;;7.02;78.28;95649.84;4963656;28;20189;-86
2023/01/07 08:12:27;;;;;;;2.97;2.67;;;;;;;7.06;78.16;95651.22;4960694;28;20195;-85
2023/01/07 08:14:53;;;;;;;1.30;1.20;;;;;;;7.13;78.45;95654.94;4972463;28;20235;-86
2023/01/07 08:17:18;;;;;;;2.30;1.57;;;;;;;6.78;78.62;95647.44;4953343;28;20192;-85
2023/01/07 08:19:43;;;;;;;1.77;1.50;;;;;;;6.71;79.77;95644.50;4964884;28;20219;-84
2023/01/07 08:22:09;;;;;;;1.50;1.40;;;;;;;6.93;79.01;95641.06;4957905;28;20235;-85
2023/01/07 08:24:34;;;;;;;1.73;1.63;;;;;;;7.03;78.81;95631.63;4956297;28;20189;-83
2023/01/07 08:27:00;;;;;;;1.17;1.10;;;;;;;7.05;78.53;95640.06;4974988;28;20698;-85
2023/01/07 08:29:25;;;;;;;1.50;1.40;;;;;;;7.03;78.46;95641.97;4975335;28;20205;-86
2023/01/07 08:31:50;;;;;;;1.83;1.60;;;;;;;7.01;78.73;95641.25;4974198;28;20189;-85
2023/01/07 08:34:18;;;;;;;3.33;2.17;;;;;;;6.99;78.73;95642.34;4975538;28;20195;-83
2023/01/07 08:36:43;;;;;;;1.90;1.60;;;;;;;7.10;78.68;95637.13;4958324;28;20292;-84
2023/01/07 08:39:10;;;;;;;2.10;1.90;;;;;;;6.98;79.73;95633.78;4957680;28;20296;-85
2023/01/07 08:41:35;;;;;;;4.93;2.43;;;;;;;7.06;79.03;95627.97;4974681;28;20200;-85
2023/01/07 08:44:01;;;;;;;1.33;1.23;;;;;;;7.20;78.73;95632.84;4974236;28;20192;-85
2023/01/07 08:46:26;;;;;;;1.70;1.20;;;;;;;7.14;78.43;95632.53;4972824;28;20184;-85
2023/01/07 08:48:51;;;;;;;1.20;1.07;;;;;;;7.29;77.90;95636.44;4961061;28;20235;-86
2023/01/07 08:51:17;;;;;;;2.50;2.07;;;;;;;7.37;78.15;95623.72;4956908;28;20571;-84
2023/01/07 08:53:42;;;;;;;1.67;1.50;;;;;;;7.39;77.61;95638.16;4955453;28;20185;-86
2023/01/07 08:56:08;;;;;;;2.23;1.80;;;;;;;7.40;77.65;95628.63;4972240;28;20696;-86
2023/01/07 08:58:33;;;;;;;1.77;1.63;;;;;;;7.32;78.35;95638.75;4958043;28;20216;-85
2023/01/07 09:01:04;;;;;;;2.23;1.97;;;;;;;7.28;78.51;95638.22;4973115;28;20688;-85
2023/01/07 09:03:29;;;;;;;2.33;2.00;;;;;;;7.32;78.75;95634.41;4957351;28;20615;-85
2023/01/07 09:05:55;;;;;;;2.60;2.27;;;;;;;7.28;78.18;95630.47;4956081;28;20283;-84
2023/01/07 09:08:20;;;;;;;4.17;3.03;;;;;;;7.45;78.20;95633.44;4964170;28;20295;-87
2023/01/07 09:10:45;;;;;;;10.03;6.30;;;;;;;7.51;78.57;95641.50;4973496;28;20196;-84
2023/01/07 09:13:10;;;;;;;10.13;6.57;;;;;;;7.58;77.82;95637.44;4972844;28;20184;-85
2023/01/07 09:15:36;;;;;;;5.50;4.13;;;;;;;7.46;78.00;95628.13;4961792;28;20208;-85
2023/01/07 09:18:05;;;;;;;2.53;2.10;;;;;;;7.50;77.78;95623.50;4957661;28;20680;-84
2023/01/07 09:20:31;;;;;;;1.90;1.70;;;;;;;7.62;77.47;95627.69;4973147;28;20190;-84
2023/01/07 09:22:56;;;;;;;1.30;1.20;;;;;;;7.49;77.34;95627.88;4973245;28;20193;-84
2023/01/07 09:25:21;;;;;;;1.60;1.50;;;;;;;7.54;77.29;95612.81;4956662;28;20197;-84
2023/01/07 09:27:48;;;;;;;2.30;1.87;;;;;;;7.73;76.40;95606.09;4956696;28;20220;-84
2023/01/07 09:30:13;;;;;;;1.90;1.77;;;;;;;7.75;75.94;95607.59;4973010;28;20285;-84
2023/01/07 09:32:38;;;;;;;1.40;1.30;;;;;;;7.93;74.83;95611.22;4968380;28;20657;-84
2023/01/07 09:35:04;;;;;;;1.30;1.20;;;;;;;8.01;75.28;95608.00;4961853;28;20244;-84
2023/01/07 09:37:30;;;;;;;2.47;1.80;;;;;;;8.05;74.36;95599.03;4970947;28;20251;-85
2023/01/07 09:39:55;;;;;;;1.40;1.30;;;;;;;8.14;74.29;95597.44;4973017;28;20626;-85
2023/01/07 09:42:39;;;;;;;5.33;3.30;;;;;;;8.15;74.39;95592.13;4964493;28;20203;-85
2023/01/07 09:45:23;;;;;;;8.73;5.07;;;;;;;8.30;73.65;95592.56;4965498;28;20192;-85
2023/01/07 09:47:50;;;;;;;3.60;2.60;;;;;;;8.38;73.79;95594.53;4970666;28;20216;-85
2023/01/07 09:50:22;;;;;;;2.50;2.00;;;;;;;8.51;73.22;95592.53;4954081;28;20549;-85
2023/01/07 09:52:50;;;;;;;16.20;6.87;;;;;;;8.60;72.83;95583.94;4964374;28;20295;-85
2023/01/07 09:55:33;;;;;;;5.87;2.90;;;;;;;8.65;72.51;95589.53;4972298;28;20677;-85
2023/01/07 09:57:59;;;;;;;2.70;1.70;;;;;;;8.75;72.15;95582.59;4951074;29;20212;-85
2023/01/07 10:00:24;;;;;;;6.50;2.97;;;;;;;8.80;71.33;95584.78;4973501;28;20228;-86
2023/01/07 10:03:24;;;;;;;5.93;2.63;;;;;;;8.77;72.46;95580.69;4973273;28;20196;-85
2023/01/07 10:06:19;;;;;;;3.43;2.03;;;;;;;8.91;71.39;95573.47;4964585;28;20222;-84
2023/01/07 10:08:52;;;;;;;1.13;1.00;;;;;;;8.64;69.98;95579.31;4961947;28;20216;-86
2023/01/07 10:11:31;;;;;;;1.10;1.00;;;;;;;8.59;70.72;95579.72;4989744;28;20201;-86
2023/01/07 10:14:14;;;;;;;1.10;1.10;;;;;;;8.86;70.78;95586.00;4993730;28;20171;-84
2023/01/07 10:16:51;;;;;;;1.50;1.10;;;;;;;9.00;70.78;95575.22;4980348;28;20208;-84
2023/01/07 10:19:33;;;;;;;1.20;1.10;;;;;;;8.97;69.98;95568.56;4963596;28;20213;-83
2023/01/07 10:22:03;;;;;;;1.70;1.50;;;;;;;9.02;70.40;95570.75;4994138;28;20198;-85
2023/01/07 10:24:39;;;;;;;1.33;1.23;;;;;;;8.99;69.74;95564.06;4971465;28;20274;-85
2023/01/07 10:27:17;;;;;;;1.40;1.30;;;;;;;9.09;69.29;95558.84;4964889;28;20569;-84
2023/01/07 10:29:50;;;;;;;1.70;1.60;;;;;;;9.34;68.94;95560.06;4952582;28;20199;-84
2023/01/07 10:32:21;;;;;;;1.40;1.30;;;;;;;9.37;69.95;95552.03;4971630;28;20189;-85
2023/01/07 10:34:49;;;;;;;1.50;1.40;;;;;;;9.44;68.40;95547.88;4960685;28;20184;-85
2023/01/07 10:37:32;;;;;;;2.30;1.43;;;;;;;9.34;69.09;95542.72;4954821;28;20282;-85
2023/01/07 10:40:16;;;;;;;1.67;1.57;;;;;;;9.28;69.45;95537.31;4953049;28;20550;-84
2023/01/07 10:43:16;;;;;;;1.70;1.50;;;;;;;9.09;70.43;95530.38;4972850;28;20180;-84
2023/01/07 10:46:30;;;;;;;2.30;1.90;;;;;;;9.21;70.09;95526.69;4969545;28;20196;-86
2023/01/07 10:48:58;;;;;;;2.30;2.10;;;;;;;9.33;69.74;95527.31;4915074;29;20342;-84
2023/01/07 10:51:44;;;;;;;2.50;2.30;;;;;;;9.19;70.12;95522.56;4915097;29;20677;-85
2023/01/07 10:54:32;;;;;;;3.40;2.53;;;;;;;8.98;71.06;95510.63;4899205;29;20197;-84
2023/01/07 10:57:03;;;;;;;3.23;2.40;;;;;;;9.41;69.57;95508.50;4896811;29;20201;-83
2023/01/07 10:59:29;;;;;;;2.40;2.20;;;;;;;9.52;69.38;95492.75;4923584;29;20693;-84
2023/01/07 11:01:56;;;;;;;3.00;2.37;;;;;;;9.54;68.48;95490.81;4926627;29;20205;-85
2023/01/07 11:04:21;;;;;;;2.27;2.07;;;;;;;9.47;69.50;95495.78;4916316;29;20616;-84
2023/01/07 11:06:58;;;;;;;3.00;2.70;;;;;;;9.15;70.40;95490.97;4918908;29;20214;-85
2023/01/07 11:09:38;;;;;;;3.17;2.40;;;;;;;9.68;69.22;95485.19;4919149;29;20213;-86
2023/01/07 11:12:15;;;;;;;3.00;2.00;;;;;;;9.74;69.01;95482.03;4934898;29;20265;-84
2023/01/07 11:14:41;;;;;;;3.63;2.40;;;;;;;9.74;68.77;95476.84;4918711;29;20198;-84
2023/01/07 11:17:13;;;;;;;5.57;2.50;;;;;;;9.86;68.69;95467.88;4918959;29;20245;-87
2023/01/07 11:19:50;;;;;;;3.80;2.93;;;;;;;9.93;67.89;95475.91;4953872;28;20373;-86
2023/01/07 11:22:36;;;;;;;2.27;2.07;;;;;;;9.79;68.34;95459.06;4970510;28;20203;-86
2023/01/07 11:25:21;;;;;;;2.43;2.20;;;;;;;10.10;68.17;95450.97;4957806;28;20195;-87
2023/01/07 11:27:46;;;;;;;2.20;2.00;;;;;;;9.81;68.21;95451.16;4966310;28;20208;-86
2023/01/07 11:30:26;;;;;;;2.53;2.07;;;;;;;9.84;67.90;95446.47;4974406;28;20684;-86
2023/01/07 11:32:58;;;;;;;2.57;1.83;;;;;;;9.75;68.30;95444.75;4958228;28;20599;-87
2023/01/07 11:35:24;;;;;;;2.07;1.87;;;;;;;9.82;68.23;95429.44;4964301;28;20216;-87
2023/01/07 11:37:50;;;;;;;2.93;2.20;;;;;;;9.81;68.68;95441.59;4958089;28;20216;-86
2023/01/07 11:40:19;;;;;;;2.20;2.00;;;;;;;9.71;68.72;95430.44;4957866;28;20207;-87
2023/01/07 11:42:50;;;;;;;3.70;2.30;;;;;;;9.77;67.96;95419.50;4958267;28;20294;-85
2023/01/07 11:45:46;;;;;;;2.33;2.13;;;;;;;9.91;67.93;95420.78;4971558;28;20275;-86
2023/01/07 11:48:34;;;;;;;3.57;2.23;;;;;;;9.90;68.36;95408.78;4966321;28;20248;-86
2023/01/07 11:51:01;;;;;;;3.07;2.10;;;;;;;9.84;68.09;95404.16;4974397;28;20188;-85
2023/01/07 11:53:31;;;;;;;2.67;2.20;;;;;;;9.94;68.29;95400.53;4967516;28;20216;-85
2023/01/07 11:55:56;;;;;;;5.03;2.30;;;;;;;9.97;67.21;95393.41;4966416;28;20216;-83